Terminal Aerodrome Forecast
Issued by NWS Mt. Holly, NJ

Home | Current Version | Previous Version | Text Only | Print | Product List | Glossary On
Versions: 1 2 3 4 5 6 7 8 9 10 11 12 13 14 15 16 17 18 19
000
FTUS41 KPHI 301700 RRA
TAFRDG
TAF
KRDG 301741Z 3018/0118 13006KT P6SM BKN050
     FM302200 09005KT P6SM BKN050
     FM010300 00000KT 6SM BR BKN012
     FM010600 04006KT 2SM BR BKN006
     FM011400 03008KT P6SM BKN010=

USA.gov is the U.S. government's official web portal to all federal, state and local government web resources and services.